Decoded Metar for KUNO (WEST PLAINS in MO, USA) (IATA:UNO) | Meteo·Mobile Aviation Weather
aviador You're here:

KUNO Decoded Metar

WEST PLAINS in MO, USA
Report Time2018-12-14 23:26:00
UTC Time2018-12-14 23:47:31
Flight Rules ifr IFR
Wind010° at 12 Gusting to 20 kt
W.Decomp.*RWY 36: 11.9 kt HW 1.7 kt RCW
W.Rank010° ranks 8
Current wind is above 010° avg. (6.9)
Visibility9999 m
Phenomena:Light Rain
Clouds:Overcast 008 Hf
Expected CloudBase > 400 ft AGL from Temp-Dew spread
Ceiling800 ft
Temp07°C (ISA -6)
Dew Point06°C (93% RH)
AAT1.7°C
QNH1014 hPa
Density Alt650 ft
Elevation1,220 ft
Report Wrong Elevation
Raw Report
KUNO 142326Z AUTO 01012G20KT 10SM -RA OVC008 07/06 A2995 RMK AO2
RAB10 CIG 005V011 P0001 T00670056=

Extra information for KUNO:More info

Metar Taf Metar & Taf Last 4 Metars F.Rules Stats Wind Profile Meteogram Temp Stats Airport Information Weather charts Add Link Nearby VenuesMetar ALERT Operation Metar Decoded Social comments

AIRNAV info for KUNO